createdAt,value
2018-06-02T00:00:30.212Z,1011.69
2018-06-02T00:01:38.856Z,1011.68
2018-06-02T00:02:47.770Z,1011.74
2018-06-02T00:03:56.419Z,1011.72
2018-06-02T00:05:05.068Z,1011.71
2018-06-02T00:06:13.711Z,1011.69
2018-06-02T00:07:22.355Z,1011.68
2018-06-02T00:08:31.018Z,1011.66
2018-06-02T00:09:39.659Z,1011.62
2018-06-02T00:10:48.568Z,1011.62
2018-06-02T00:11:57.213Z,1011.6
2018-06-02T00:13:05.868Z,1011.58
2018-06-02T00:14:14.514Z,1011.59
2018-06-02T00:15:23.162Z,1011.6
2018-06-02T00:16:31.804Z,1011.6
2018-06-02T00:17:40.456Z,1011.66
2018-06-02T00:18:49.102Z,1011.61
2018-06-02T00:19:57.752Z,1011.61
2018-06-02T00:21:06.396Z,1011.64
2018-06-02T00:22:15.045Z,1011.68
2018-06-02T00:23:23.693Z,1011.63
2018-06-02T00:24:32.342Z,1011.65
2018-06-02T00:25:40.987Z,1011.65
2018-06-02T00:26:49.646Z,1011.68
2018-06-02T00:27:58.292Z,1011.67
2018-06-02T00:29:06.940Z,1011.69
2018-06-02T00:30:15.582Z,1011.7
2018-06-02T00:31:24.235Z,1011.7
2018-06-02T00:32:32.881Z,1011.71
2018-06-02T00:33:41.527Z,1011.73
2018-06-02T00:34:50.436Z,1011.7
2018-06-02T00:35:59.092Z,1011.69
2018-06-02T00:37:07.737Z,1011.67
2018-06-02T00:38:16.390Z,1011.66
2018-06-02T00:39:25.036Z,1011.66
2018-06-02T00:40:33.679Z,1011.63
2018-06-02T00:41:42.594Z,1011.65
2018-06-02T00:42:51.244Z,1011.66
2018-06-02T00:43:59.899Z,1011.64
2018-06-02T00:45:08.540Z,1011.66
2018-06-02T00:46:17.188Z,1011.65
2018-06-02T00:47:25.839Z,1011.64
2018-06-02T00:48:34.488Z,1011.62
2018-06-02T00:49:43.130Z,1011.64
2018-06-02T00:50:51.774Z,1011.65
2018-06-02T00:52:00.425Z,1011.64
2018-06-02T00:53:09.073Z,1011.63
2018-06-02T00:54:17.715Z,1011.67
2018-06-02T00:55:26.364Z,1011.62
2018-06-02T00:56:35.275Z,1011.64
2018-06-02T00:57:43.927Z,1011.62
2018-06-02T00:58:52.572Z,1011.59
2018-06-02T01:00:01.230Z,1011.52
2018-06-02T01:01:09.868Z,1011.6
2018-06-02T01:02:18.519Z,1011.58
2018-06-02T01:03:27.423Z,1011.54
2018-06-02T01:04:36.072Z,1011.54
2018-06-02T01:05:44.719Z,1011.54
2018-06-02T01:06:53.360Z,1011.52
2018-06-02T01:08:02.018Z,1011.52
2018-06-02T01:09:10.655Z,1011.52
2018-06-02T01:10:19.564Z,1011.5
2018-06-02T01:11:28.206Z,1011.48
2018-06-02T01:12:36.859Z,1011.48
2018-06-02T01:13:45.499Z,1011.46
2018-06-02T01:14:54.414Z,1011.5
2018-06-02T01:16:03.057Z,1011.52
2018-06-02T01:17:11.706Z,1011.51
2018-06-02T01:18:20.621Z,1011.48
2018-06-02T01:19:29.272Z,1011.47
2018-06-02T01:20:37.922Z,1011.46
2018-06-02T01:21:46.563Z,1011.49
2018-06-02T01:22:55.211Z,1011.48
2018-06-02T01:24:03.857Z,1011.49
2018-06-02T01:25:12.519Z,1011.44
2018-06-02T01:26:21.150Z,1011.44
2018-06-02T01:27:30.068Z,1011.42
2018-06-02T01:28:38.712Z,1011.44
2018-06-02T01:29:47.369Z,1011.42
2018-06-02T01:30:56.007Z,1011.42
2018-06-02T01:32:04.657Z,1011.45
2018-06-02T01:33:13.301Z,1011.46
2018-06-02T01:34:21.957Z,1011.49
2018-06-02T01:35:30.601Z,1011.49
2018-06-02T01:36:39.244Z,1011.49
2018-06-02T01:37:47.890Z,1011.51
2018-06-02T01:38:56.802Z,1011.51
2018-06-02T01:40:05.460Z,1011.54
2018-06-02T01:41:14.100Z,1011.54
2018-06-02T01:42:22.751Z,1011.55
2018-06-02T01:43:31.390Z,1011.52
2018-06-02T01:44:40.045Z,1011.54
2018-06-02T01:45:48.684Z,1011.55
2018-06-02T01:46:57.336Z,1011.57
2018-06-02T01:48:05.973Z,1011.58
2018-06-02T01:49:14.905Z,1011.57
2018-06-02T01:50:23.553Z,1011.56
2018-06-02T01:51:32.202Z,1011.58
2018-06-02T01:52:40.845Z,1011.58
2018-06-02T01:53:49.752Z,1011.59
2018-06-02T01:54:58.404Z,1011.55
2018-06-02T01:56:07.052Z,1011.57
2018-06-02T01:57:15.704Z,1011.58
2018-06-02T01:58:24.341Z,1011.56
2018-06-02T01:59:32.986Z,1011.52
2018-06-02T02:00:41.893Z,1011.59
2018-06-02T02:01:50.549Z,1011.54
2018-06-02T02:02:59.185Z,1011.55
2018-06-02T02:04:07.837Z,1011.49
2018-06-02T02:05:16.480Z,1011.51
2018-06-02T02:06:25.134Z,1011.52
2018-06-02T02:07:33.772Z,1011.52
2018-06-02T02:08:42.420Z,1011.51
2018-06-02T02:09:51.062Z,1011.49
2018-06-02T02:10:59.718Z,1011.51
2018-06-02T02:12:08.362Z,1011.51
2018-06-02T02:13:17.005Z,1011.5
2018-06-02T02:14:25.654Z,1011.51
2018-06-02T02:15:34.301Z,1011.53
2018-06-02T02:16:42.966Z,1011.5
2018-06-02T02:17:51.876Z,1011.48
2018-06-02T02:19:00.529Z,1011.44
2018-06-02T02:20:09.429Z,1011.53
2018-06-02T02:21:18.080Z,1011.47
2018-06-02T02:22:26.726Z,1011.46
2018-06-02T02:23:35.378Z,1011.46
2018-06-02T02:24:44.287Z,1011.46
2018-06-02T02:25:52.939Z,1011.46
2018-06-02T02:27:01.583Z,1011.45
2018-06-02T02:28:10.232Z,1011.49
2018-06-02T02:29:18.877Z,1011.5
2018-06-02T02:30:27.534Z,1011.51
2018-06-02T02:31:36.180Z,1011.51
2018-06-02T02:32:45.098Z,1011.46
2018-06-02T02:33:53.748Z,1011.46
2018-06-02T02:35:02.391Z,1011.47
2018-06-02T02:36:11.052Z,1011.46
2018-06-02T02:37:19.705Z,1011.43
2018-06-02T02:38:28.373Z,1011.45
2018-06-02T02:39:37.009Z,1011.46
2018-06-02T02:40:45.657Z,1011.48
2018-06-02T02:41:54.312Z,1011.5
2018-06-02T02:43:02.969Z,1011.49
2018-06-02T02:44:11.611Z,1011.5
2018-06-02T02:45:20.267Z,1011.49
2018-06-02T02:46:28.905Z,1011.49
2018-06-02T02:47:37.827Z,1011.51
2018-06-02T02:48:46.756Z,1011.51
2018-06-02T02:49:55.414Z,1011.53
2018-06-02T02:51:04.068Z,1011.53
2018-06-02T02:52:12.719Z,1011.57
2018-06-02T02:53:21.371Z,1011.54
2018-06-02T02:54:30.020Z,1011.56
2018-06-02T02:55:38.669Z,1011.61
2018-06-02T02:56:47.581Z,1011.53
2018-06-02T02:57:56.233Z,1011.59
2018-06-02T02:59:05.140Z,1011.59
2018-06-02T03:00:13.790Z,1011.53
2018-06-02T03:01:22.698Z,1011.57
2018-06-02T03:02:32.056Z,1011.57
2018-06-02T03:03:41.058Z,1011.58
2018-06-02T03:04:49.945Z,1011.57
2018-06-02T03:05:59.032Z,1011.65
2018-06-02T03:07:08.252Z,1011.67
2018-06-02T03:08:16.953Z,1011.64
2018-06-02T03:09:26.368Z,1011.65
2018-06-02T03:10:35.167Z,1011.66
2018-06-02T03:11:43.806Z,1011.69
2018-06-02T03:12:52.550Z,1011.7
2018-06-02T03:14:01.361Z,1011.7
2018-06-02T03:15:10.368Z,1011.69
2018-06-02T03:16:19.256Z,1011.68
2018-06-02T03:17:28.151Z,1011.67
2018-06-02T03:18:37.306Z,1011.72
2018-06-02T03:19:45.961Z,1011.68
2018-06-02T03:20:54.600Z,1011.69
2018-06-02T03:22:03.248Z,1011.72
2018-06-02T03:23:11.892Z,1011.69
2018-06-02T03:24:20.545Z,1011.69
2018-06-02T03:25:29.193Z,1011.68
2018-06-02T03:26:37.833Z,1011.67
2018-06-02T03:27:46.478Z,1011.68
2018-06-02T03:28:55.125Z,1011.68
2018-06-02T03:30:03.783Z,1011.71
2018-06-02T03:31:12.427Z,1011.68
2018-06-02T03:32:21.355Z,1011.65
2018-06-02T03:33:30.264Z,1011.7
2018-06-02T03:34:39.180Z,1011.68
2018-06-02T03:35:47.821Z,1011.72
2018-06-02T03:36:56.474Z,1011.71
2018-06-02T03:38:05.112Z,1011.73
2018-06-02T03:39:13.769Z,1011.76
2018-06-02T03:40:22.686Z,1011.82
2018-06-02T03:41:31.333Z,1011.77
2018-06-02T03:42:39.971Z,1011.75
2018-06-02T03:43:48.621Z,1011.71
2018-06-02T03:44:57.273Z,1011.72
2018-06-02T03:46:05.923Z,1011.8
2018-06-02T03:47:14.841Z,1011.72
2018-06-02T03:48:23.477Z,1011.79
2018-06-02T03:49:32.132Z,1011.76
2018-06-02T03:50:40.771Z,1011.77
2018-06-02T03:51:49.432Z,1011.79
2018-06-02T03:52:58.072Z,1011.83
2018-06-02T03:54:06.999Z,1011.78
2018-06-02T03:55:15.638Z,1011.82
2018-06-02T03:56:24.302Z,1011.82
2018-06-02T03:57:32.949Z,1011.84
2018-06-02T03:58:41.859Z,1011.88
2018-06-02T03:59:50.502Z,1011.86
2018-06-02T04:00:59.159Z,1011.88
2018-06-02T04:02:07.802Z,1011.81
2018-06-02T04:03:16.446Z,1011.83
2018-06-02T04:04:25.090Z,1011.85
2018-06-02T04:05:34.004Z,1011.85
2018-06-02T04:06:42.658Z,1011.87
2018-06-02T04:07:51.298Z,1011.9
2018-06-02T04:08:59.944Z,1011.83
2018-06-02T04:10:08.583Z,1011.88
2018-06-02T04:11:17.238Z,1011.89
2018-06-02T04:12:25.880Z,1011.89
2018-06-02T04:13:34.531Z,1011.9
2018-06-02T04:14:43.172Z,1011.88
2018-06-02T04:15:51.880Z,1011.9
2018-06-02T04:17:00.787Z,1011.92
2018-06-02T04:18:09.426Z,1011.94
2018-06-02T04:19:18.087Z,1011.92
2018-06-02T04:20:26.996Z,1011.96
2018-06-02T04:21:35.637Z,1012.01
2018-06-02T04:22:44.280Z,1011.98
2018-06-02T04:23:52.927Z,1011.97
2018-06-02T04:25:01.592Z,1011.99
2018-06-02T04:26:10.496Z,1012
2018-06-02T04:27:19.146Z,1012.03
2018-06-02T04:28:27.780Z,1012.02
2018-06-02T04:29:36.433Z,1012.02
2018-06-02T04:30:45.082Z,1012.04
2018-06-02T04:31:53.997Z,1012.06
2018-06-02T04:33:02.633Z,1012.04
2018-06-02T04:34:11.291Z,1012.04
2018-06-02T04:35:19.935Z,1012.04
2018-06-02T04:36:28.587Z,1012.02
2018-06-02T04:37:37.225Z,1012.03
2018-06-02T04:38:45.877Z,1012.03
2018-06-02T04:39:55.063Z,1012.04
2018-06-02T04:41:03.975Z,1012.05
2018-06-02T04:42:12.624Z,1012.02
2018-06-02T04:43:21.266Z,1011.99
2018-06-02T04:44:29.915Z,1012.01
2018-06-02T04:45:38.822Z,1012
2018-06-02T04:46:47.477Z,1012.02
2018-06-02T04:47:56.116Z,1011.99
2018-06-02T04:49:04.768Z,1012.02
2018-06-02T04:50:13.415Z,1012.01
2018-06-02T04:51:22.070Z,1012.04
2018-06-02T04:52:30.710Z,1012.04
2018-06-02T04:53:39.354Z,1012.09
2018-06-02T04:54:47.999Z,1012.07
2018-06-02T04:55:56.918Z,1012.09
2018-06-02T04:57:05.563Z,1012.1
2018-06-02T04:58:14.206Z,1012.13
2018-06-02T04:59:22.849Z,1012.13
2018-06-02T05:00:31.495Z,1012.18
2018-06-02T05:01:40.420Z,1012.19
2018-06-02T05:02:49.063Z,1012.17
2018-06-02T05:03:57.714Z,1012.17
2018-06-02T05:05:06.352Z,1012.18
2018-06-02T05:06:15.007Z,1012.15
2018-06-02T05:07:23.913Z,1012.18
2018-06-02T05:08:32.830Z,1012.18
2018-06-02T05:09:41.468Z,1012.13
2018-06-02T05:10:50.128Z,1012.15
2018-06-02T05:11:58.770Z,1012.16
2018-06-02T05:13:07.421Z,1012.15
2018-06-02T05:14:16.058Z,1012.18
2018-06-02T05:15:24.707Z,1012.19
2018-06-02T05:16:33.358Z,1012.18
2018-06-02T05:17:42.274Z,1012.2
2018-06-02T05:18:50.925Z,1012.2
2018-06-02T05:19:59.568Z,1012.24
2018-06-02T05:21:08.216Z,1012.25
2018-06-02T05:22:16.864Z,1012.25
2018-06-02T05:23:25.777Z,1012.3
2018-06-02T05:24:34.944Z,1012.29
2018-06-02T05:25:43.592Z,1012.33
2018-06-02T05:26:52.244Z,1012.34
2018-06-02T05:28:00.896Z,1012.33
2018-06-02T05:29:09.576Z,1012.37
2018-06-02T05:30:18.187Z,1012.36
2018-06-02T05:31:26.830Z,1012.36
2018-06-02T05:32:35.482Z,1012.42
2018-06-02T05:33:44.125Z,1012.42
2018-06-02T05:34:52.773Z,1012.41
2018-06-02T05:36:01.953Z,1012.43
2018-06-02T05:37:10.597Z,1012.42
2018-06-02T05:38:19.249Z,1012.4
2018-06-02T05:39:27.893Z,1012.43
2018-06-02T05:40:36.610Z,1012.38
2018-06-02T05:41:45.182Z,1012.42
2018-06-02T05:42:53.834Z,1012.41
2018-06-02T05:44:02.479Z,1012.43
2018-06-02T05:45:11.128Z,1012.4
2018-06-02T05:46:19.768Z,1012.44
2018-06-02T05:47:28.419Z,1012.42
2018-06-02T05:48:37.062Z,1012.45
2018-06-02T05:49:45.712Z,1012.43
2018-06-02T05:50:54.354Z,1012.45
2018-06-02T05:52:03.003Z,1012.43
2018-06-02T05:53:11.650Z,1012.43
2018-06-02T05:54:20.299Z,1012.38
2018-06-02T05:55:28.948Z,1012.38
2018-06-02T05:56:37.589Z,1012.4
2018-06-02T05:57:46.237Z,1012.43
2018-06-02T05:58:54.883Z,1012.43
2018-06-02T06:00:03.540Z,1012.44
2018-06-02T06:01:12.183Z,1012.42
2018-06-02T06:02:20.831Z,1012.43
2018-06-02T06:03:29.480Z,1012.42
2018-06-02T06:04:38.132Z,1012.39
2018-06-02T06:05:46.777Z,1012.43
2018-06-02T06:06:55.425Z,1012.42
2018-06-02T06:08:04.069Z,1012.42
2018-06-02T06:09:12.719Z,1012.4
2018-06-02T06:10:21.363Z,1012.41
2018-06-02T06:11:30.009Z,1012.4
2018-06-02T06:12:38.658Z,1012.41
2018-06-02T06:13:47.302Z,1012.39
2018-06-02T06:14:55.950Z,1012.4
2018-06-02T06:16:04.602Z,1012.41
2018-06-02T06:17:13.784Z,1012.43
2018-06-02T06:18:22.427Z,1012.42
2018-06-02T06:19:31.088Z,1012.43
2018-06-02T06:20:39.724Z,1012.42
2018-06-02T06:21:48.372Z,1012.42
2018-06-02T06:22:57.012Z,1012.41
2018-06-02T06:24:05.668Z,1012.41
2018-06-02T06:25:14.572Z,1012.43
2018-06-02T06:26:23.221Z,1012.4
2018-06-02T06:27:31.867Z,1012.42
2018-06-02T06:28:40.774Z,1012.43
2018-06-02T06:29:49.683Z,1012.43
2018-06-02T06:30:58.334Z,1012.45
2018-06-02T06:32:06.982Z,1012.42
2018-06-02T06:33:15.645Z,1012.44
2018-06-02T06:34:24.271Z,1012.39
2018-06-02T06:35:32.916Z,1012.43
2018-06-02T06:36:41.569Z,1012.42
2018-06-02T06:37:50.468Z,1012.43
2018-06-02T06:38:59.163Z,1012.42
2018-06-02T06:40:07.762Z,1012.43
2018-06-02T06:41:16.414Z,1012.46
2018-06-02T06:42:25.318Z,1012.49
2018-06-02T06:43:33.968Z,1012.51
2018-06-02T06:44:42.664Z,1012.52
2018-06-02T06:45:51.269Z,1012.58
2018-06-02T06:46:59.914Z,1012.55
2018-06-02T06:48:08.561Z,1012.57
2018-06-02T06:49:17.210Z,1012.54
2018-06-02T06:50:25.853Z,1012.58
2018-06-02T06:51:34.507Z,1012.58
2018-06-02T06:52:43.156Z,1012.58
2018-06-02T06:53:51.803Z,1012.58
2018-06-02T06:55:00.447Z,1012.57
2018-06-02T06:56:09.098Z,1012.55
2018-06-02T06:57:17.744Z,1012.55
2018-06-02T06:58:26.396Z,1012.56
2018-06-02T06:59:35.564Z,1012.56
2018-06-02T07:00:44.479Z,1012.6
2018-06-02T07:01:53.128Z,1012.63
2018-06-02T07:03:01.773Z,1012.62
2018-06-02T07:04:10.416Z,1012.62
2018-06-02T07:05:19.066Z,1012.62
2018-06-02T07:06:27.712Z,1012.67
2018-06-02T07:07:36.363Z,1012.65
2018-06-02T07:08:45.274Z,1012.65
2018-06-02T07:09:54.213Z,1012.69
2018-06-02T07:11:02.860Z,1012.65
2018-06-02T07:12:11.505Z,1012.66
2018-06-02T07:13:20.158Z,1012.67
2018-06-02T07:14:28.799Z,1012.68
2018-06-02T07:15:37.737Z,1012.67
2018-06-02T07:16:46.363Z,1012.66
2018-06-02T07:17:55.021Z,1012.64
2018-06-02T07:19:03.652Z,1012.68
2018-06-02T07:20:12.303Z,1012.64
2018-06-02T07:21:21.216Z,1012.64
2018-06-02T07:22:29.876Z,1012.72
2018-06-02T07:23:38.784Z,1012.74
2018-06-02T07:24:47.457Z,1012.71
2018-06-02T07:25:56.878Z,1012.76
2018-06-02T07:27:05.523Z,1012.77
2018-06-02T07:28:14.181Z,1012.75
2018-06-02T07:29:22.824Z,1012.77
2018-06-02T07:30:31.476Z,1012.77
2018-06-02T07:31:40.114Z,1012.75
2018-06-02T07:32:48.774Z,1012.77
2018-06-02T07:33:57.423Z,1012.78
2018-06-02T07:35:06.069Z,1012.81
2018-06-02T07:36:14.708Z,1012.81
2018-06-02T07:37:23.365Z,1012.82
2018-06-02T07:38:32.011Z,1012.8
2018-06-02T07:39:40.658Z,1012.78
2018-06-02T07:40:49.297Z,1012.83
2018-06-02T07:41:57.950Z,1012.78
2018-06-02T07:43:06.864Z,1012.79
2018-06-02T07:44:15.517Z,1012.78
2018-06-02T07:45:24.162Z,1012.77
2018-06-02T07:46:33.062Z,1012.77
2018-06-02T07:47:41.995Z,1012.77
2018-06-02T07:48:50.641Z,1012.74
2018-06-02T07:49:59.362Z,1012.82
2018-06-02T07:51:08.639Z,1012.77
2018-06-02T07:52:17.291Z,1012.8
2018-06-02T07:53:25.935Z,1012.75
2018-06-02T07:54:34.591Z,1012.76
2018-06-02T07:55:43.755Z,1012.72
2018-06-02T07:56:52.405Z,1012.72
2018-06-02T07:58:01.052Z,1012.73
2018-06-02T07:59:09.710Z,1012.73
2018-06-02T08:00:18.617Z,1012.72
2018-06-02T08:01:27.268Z,1012.74
2018-06-02T08:02:35.913Z,1012.74
2018-06-02T08:03:44.557Z,1012.75
2018-06-02T08:04:53.214Z,1012.73
2018-06-02T08:06:02.120Z,1012.76
2018-06-02T08:07:11.042Z,1012.71
2018-06-02T08:08:19.961Z,1012.73
2018-06-02T08:09:28.603Z,1012.7
2018-06-02T08:10:37.249Z,1012.66
2018-06-02T08:11:45.902Z,1012.65
2018-06-02T08:12:54.545Z,1012.64
2018-06-02T08:14:03.453Z,1012.62
2018-06-02T08:15:12.103Z,1012.65
2018-06-02T08:16:21.021Z,1012.66
2018-06-02T08:17:29.946Z,1012.68
2018-06-02T08:18:38.592Z,1012.71
2018-06-02T08:19:47.236Z,1012.69
2018-06-02T08:20:55.881Z,1012.72
2018-06-02T08:22:04.528Z,1012.73
2018-06-02T08:23:13.185Z,1012.69
2018-06-02T08:24:21.828Z,1012.69
2018-06-02T08:25:30.481Z,1012.69
2018-06-02T08:26:39.168Z,1012.69
2018-06-02T08:27:47.783Z,1012.67
2018-06-02T08:28:56.437Z,1012.7
2018-06-02T08:30:05.365Z,1012.69
2018-06-02T08:31:14.002Z,1012.69
2018-06-02T08:32:22.661Z,1012.69
2018-06-02T08:33:31.374Z,1012.74
2018-06-02T08:34:40.322Z,1012.74
2018-06-02T08:35:48.960Z,1012.76
2018-06-02T08:36:57.610Z,1012.76
2018-06-02T08:38:06.261Z,1012.8
2018-06-02T08:39:14.911Z,1012.79
2018-06-02T08:40:23.559Z,1012.8
2018-06-02T08:41:32.196Z,1012.82
2018-06-02T08:42:40.851Z,1012.77
2018-06-02T08:43:49.492Z,1012.8
2018-06-02T08:44:58.149Z,1012.8
2018-06-02T08:46:07.055Z,1012.85
2018-06-02T08:47:15.709Z,1012.83
2018-06-02T08:48:24.620Z,1012.85
2018-06-02T08:49:33.278Z,1012.88
2018-06-02T08:50:41.913Z,1012.86
2018-06-02T08:51:50.570Z,1012.88
2018-06-02T08:52:59.216Z,1012.87
2018-06-02T08:54:07.873Z,1012.92
2018-06-02T08:55:16.788Z,1012.92
2018-06-02T08:56:25.431Z,1012.9
2018-06-02T08:57:34.081Z,1012.9
2018-06-02T08:58:42.727Z,1012.88
2018-06-02T08:59:51.385Z,1012.92
2018-06-02T09:01:00.028Z,1012.92
2018-06-02T09:02:08.679Z,1012.96
2018-06-02T09:03:17.320Z,1012.97
2018-06-02T09:04:25.979Z,1012.94
2018-06-02T09:05:34.622Z,1012.96
2018-06-02T09:06:43.271Z,1012.99
2018-06-02T09:07:51.914Z,1012.99
2018-06-02T09:09:00.570Z,1013.02
2018-06-02T09:10:09.215Z,1013.02
2018-06-02T09:11:18.128Z,1013.02
2018-06-02T09:12:26.779Z,1013.02
2018-06-02T09:13:35.688Z,1013
2018-06-02T09:14:44.342Z,1012.99
2018-06-02T09:15:53.267Z,1013.01
2018-06-02T09:17:02.501Z,1012.99
2018-06-02T09:18:11.144Z,1013
2018-06-02T09:19:19.834Z,1013
2018-06-02T09:20:28.444Z,1013.03
2018-06-02T09:21:37.100Z,1012.98
2018-06-02T09:22:45.740Z,1012.97
2018-06-02T09:23:54.390Z,1013.02
2018-06-02T09:25:03.038Z,1013
2018-06-02T09:26:11.952Z,1012.99
2018-06-02T09:27:20.599Z,1013
2018-06-02T09:28:29.246Z,1012.99
2018-06-02T09:29:37.893Z,1012.98
2018-06-02T09:30:46.550Z,1012.98
2018-06-02T09:31:55.191Z,1013
2018-06-02T09:33:03.838Z,1013.02
2018-06-02T09:34:12.485Z,1013.06
2018-06-02T09:35:21.477Z,1013.04
2018-06-02T09:36:30.050Z,1013.05
2018-06-02T09:37:38.962Z,1013.03
2018-06-02T09:38:47.610Z,1013.04
2018-06-02T09:39:56.258Z,1013.06
2018-06-02T09:41:04.915Z,1013.09
2018-06-02T09:42:13.829Z,1013.06
2018-06-02T09:43:22.479Z,1013.07
2018-06-02T09:44:31.391Z,1013.02
2018-06-02T09:45:40.046Z,1013.04
2018-06-02T09:46:48.695Z,1013.08
2018-06-02T09:47:57.618Z,1013.08
2018-06-02T09:49:06.533Z,1013.13
2018-06-02T09:50:15.188Z,1013.16
2018-06-02T09:51:24.099Z,1013.13
2018-06-02T09:52:32.757Z,1013.17
2018-06-02T09:53:41.408Z,1013.18
2018-06-02T09:54:50.052Z,1013.21
2018-06-02T09:55:58.702Z,1013.14
2018-06-02T09:57:07.353Z,1013.17
2018-06-02T09:58:16.007Z,1013.16
2018-06-02T09:59:24.650Z,1013.18
2018-06-02T10:00:33.573Z,1013.2
2018-06-02T10:01:42.223Z,1013.19
2018-06-02T10:02:51.142Z,1013.2
2018-06-02T10:03:59.788Z,1013.22
2018-06-02T10:05:08.445Z,1013.2
2018-06-02T10:06:17.093Z,1013.19
2018-06-02T10:07:25.744Z,1013.2
2018-06-02T10:08:34.392Z,1013.15
2018-06-02T10:09:43.041Z,1013.19
2018-06-02T10:10:51.686Z,1013.18
2018-06-02T10:12:00.336Z,1013.17
2018-06-02T10:13:08.994Z,1013.21
2018-06-02T10:14:17.910Z,1013.2
2018-06-02T10:15:26.834Z,1013.22
2018-06-02T10:16:35.471Z,1013.19
2018-06-02T10:17:44.132Z,1013.22
2018-06-02T10:18:52.773Z,1013.21
2018-06-02T10:20:01.695Z,1013.19
2018-06-02T10:21:10.337Z,1013.24
2018-06-02T10:22:18.995Z,1013.2
2018-06-02T10:23:27.916Z,1013.23
2018-06-02T10:24:36.567Z,1013.21
2018-06-02T10:25:45.213Z,1013.24
2018-06-02T10:26:53.862Z,1013.21
2018-06-02T10:28:02.515Z,1013.2
2018-06-02T10:29:11.165Z,1013.22
2018-06-02T10:30:19.818Z,1013.2
2018-06-02T10:31:28.504Z,1013.22
2018-06-02T10:32:37.113Z,1013.27
2018-06-02T10:33:45.758Z,1013.25
2018-06-02T10:34:54.415Z,1013.29
2018-06-02T10:36:03.324Z,1013.24
2018-06-02T10:37:12.513Z,1013.27
2018-06-02T10:38:21.159Z,1013.28
2018-06-02T10:39:29.825Z,1013.28
2018-06-02T10:40:38.457Z,1013.3
2018-06-02T10:41:47.111Z,1013.23
2018-06-02T10:42:55.758Z,1013.28
2018-06-02T10:44:04.419Z,1013.24
2018-06-02T10:45:13.068Z,1013.28
2018-06-02T10:46:21.984Z,1013.25
2018-06-02T10:47:30.626Z,1013.25
2018-06-02T10:48:39.275Z,1013.31
2018-06-02T10:49:48.201Z,1013.29
2018-06-02T10:50:56.844Z,1013.27
2018-06-02T10:52:05.500Z,1013.3
2018-06-02T10:53:14.142Z,1013.27
2018-06-02T10:54:23.074Z,1013.29
2018-06-02T10:55:31.982Z,1013.25
2018-06-02T10:56:40.640Z,1013.31
2018-06-02T10:57:49.285Z,1013.27
2018-06-02T10:58:57.944Z,1013.24
2018-06-02T11:00:06.595Z,1013.26
2018-06-02T11:01:15.253Z,1013.26
2018-06-02T11:02:24.160Z,1013.25
2018-06-02T11:03:32.814Z,1013.26
2018-06-02T11:04:41.746Z,1013.24
2018-06-02T11:05:50.394Z,1013.28
2018-06-02T11:06:59.049Z,1013.22
2018-06-02T11:08:07.690Z,1013.25
2018-06-02T11:09:16.344Z,1013.27
2018-06-02T11:10:24.995Z,1013.25
2018-06-02T11:11:33.921Z,1013.29
2018-06-02T11:12:42.569Z,1013.29
2018-06-02T11:13:51.223Z,1013.32
2018-06-02T11:14:59.875Z,1013.27
2018-06-02T11:16:08.531Z,1013.31
2018-06-02T11:17:17.178Z,1013.3
2018-06-02T11:18:25.830Z,1013.35
2018-06-02T11:19:34.551Z,1013.33
2018-06-02T11:20:43.400Z,1013.34
2018-06-02T11:21:52.048Z,1013.33
2018-06-02T11:23:00.698Z,1013.34
2018-06-02T11:24:09.347Z,1013.32
2018-06-02T11:25:18.258Z,1013.34
2018-06-02T11:26:26.914Z,1013.3
2018-06-02T11:27:35.566Z,1013.34
2018-06-02T11:28:44.218Z,1013.29
2018-06-02T11:29:52.864Z,1013.29
2018-06-02T11:31:01.524Z,1013.29
2018-06-02T11:32:10.437Z,1013.35
2018-06-02T11:33:19.089Z,1013.28
2018-06-02T11:34:28.012Z,1013.32
2018-06-02T11:35:36.669Z,1013.3
2018-06-02T11:36:45.320Z,1013.32
2018-06-02T11:37:53.978Z,1013.31
2018-06-02T11:39:02.625Z,1013.29
2018-06-02T11:40:11.281Z,1013.28
2018-06-02T11:41:19.931Z,1013.33
2018-06-02T11:42:28.587Z,1013.35
2018-06-02T11:43:37.512Z,1013.36
2018-06-02T11:44:46.166Z,1013.29
2018-06-02T11:45:54.823Z,1013.3
2018-06-02T11:47:03.476Z,1013.33
2018-06-02T11:48:12.131Z,1013.31
2018-06-02T11:49:20.781Z,1013.3
2018-06-02T11:50:29.700Z,1013.28
2018-06-02T11:51:38.348Z,1013.29
2018-06-02T11:52:47.005Z,1013.28
2018-06-02T11:53:55.919Z,1013.27
2018-06-02T11:55:04.843Z,1013.27
2018-06-02T11:56:13.493Z,1013.24
2018-06-02T11:57:22.149Z,1013.31
2018-06-02T11:58:31.065Z,1013.3
2018-06-02T11:59:39.757Z,1013.31
2018-06-02T12:00:48.370Z,1013.3
2018-06-02T12:01:57.313Z,1013.31
2018-06-02T12:03:06.499Z,1013.31
2018-06-02T12:04:15.152Z,1013.23
2018-06-02T12:05:23.806Z,1013.27
2018-06-02T12:06:32.453Z,1013.29
2018-06-02T12:07:41.108Z,1013.26
2018-06-02T12:08:49.763Z,1013.27
2018-06-02T12:09:58.416Z,1013.26
2018-06-02T12:11:07.072Z,1013.31
2018-06-02T12:12:15.721Z,1013.32
2018-06-02T12:13:24.909Z,1013.31
2018-06-02T12:14:33.558Z,1013.35
2018-06-02T12:15:42.214Z,1013.34
2018-06-02T12:16:50.871Z,1013.34
2018-06-02T12:17:59.519Z,1013.31
2018-06-02T12:19:08.432Z,1013.28
2018-06-02T12:20:17.090Z,1013.3
2018-06-02T12:21:26.017Z,1013.32
2018-06-02T12:22:34.673Z,1013.3
2018-06-02T12:23:43.321Z,1013.35
2018-06-02T12:24:51.979Z,1013.36
2018-06-02T12:26:00.626Z,1013.34
2018-06-02T12:27:09.275Z,1013.34
2018-06-02T12:28:17.990Z,1013.36
2018-06-02T12:29:26.849Z,1013.33
2018-06-02T12:30:35.502Z,1013.31
2018-06-02T12:31:44.150Z,1013.33
2018-06-02T12:32:52.811Z,1013.33
2018-06-02T12:34:01.456Z,1013.33
2018-06-02T12:35:10.371Z,1013.33
2018-06-02T12:36:19.023Z,1013.36
2018-06-02T12:37:27.676Z,1013.35
2018-06-02T12:38:36.595Z,1013.36
2018-06-02T12:39:45.245Z,1013.36
2018-06-02T12:40:53.892Z,1013.34
2018-06-02T12:42:02.544Z,1013.34
2018-06-02T12:43:11.205Z,1013.34
2018-06-02T12:44:19.850Z,1013.34
2018-06-02T12:45:28.502Z,1013.36
2018-06-02T12:46:37.153Z,1013.37
2018-06-02T12:47:45.871Z,1013.4
2018-06-02T12:48:54.452Z,1013.38
2018-06-02T12:50:03.379Z,1013.37
2018-06-02T12:51:12.029Z,1013.4
2018-06-02T12:52:20.686Z,1013.35
2018-06-02T12:53:29.339Z,1013.39
2018-06-02T12:54:37.993Z,1013.39
2018-06-02T12:55:46.903Z,1013.39
2018-06-02T12:56:55.553Z,1013.35
2018-06-02T12:58:04.478Z,1013.36
2018-06-02T12:59:13.129Z,1013.34
2018-06-02T13:00:21.779Z,1013.34
2018-06-02T13:01:30.430Z,1013.33
2018-06-02T13:02:39.086Z,1013.29
2018-06-02T13:03:48.003Z,1013.35
2018-06-02T13:04:56.655Z,1013.34
2018-06-02T13:06:05.302Z,1013.3
2018-06-02T13:07:13.961Z,1013.33
2018-06-02T13:08:22.612Z,1013.33
2018-06-02T13:09:31.268Z,1013.31
2018-06-02T13:10:39.911Z,1013.32
2018-06-02T13:11:48.830Z,1013.33
2018-06-02T13:12:57.758Z,1013.35
2018-06-02T13:14:06.411Z,1013.34
2018-06-02T13:15:15.070Z,1013.37
2018-06-02T13:16:23.714Z,1013.36
2018-06-02T13:17:32.369Z,1013.36
2018-06-02T13:18:41.284Z,1013.35
2018-06-02T13:19:49.943Z,1013.37
2018-06-02T13:20:58.588Z,1013.32
2018-06-02T13:22:07.244Z,1013.32
2018-06-02T13:23:15.891Z,1013.33
2018-06-02T13:24:24.555Z,1013.33
2018-06-02T13:25:33.461Z,1013.3
2018-06-02T13:26:42.117Z,1013.3
2018-06-02T13:27:50.773Z,1013.27
2018-06-02T13:28:59.425Z,1013.32
2018-06-02T13:30:08.338Z,1013.29
2018-06-02T13:31:16.982Z,1013.24
2018-06-02T13:32:26.161Z,1013.26
2018-06-02T13:33:34.808Z,1013.27
2018-06-02T13:34:43.470Z,1013.27
2018-06-02T13:35:52.118Z,1013.21
2018-06-02T13:37:00.773Z,1013.23
2018-06-02T13:38:09.413Z,1013.24
2018-06-02T13:39:18.072Z,1013.29
2018-06-02T13:40:26.723Z,1013.24
2018-06-02T13:41:35.380Z,1013.19
2018-06-02T13:42:44.024Z,1013.19
2018-06-02T13:43:52.683Z,1013.2
2018-06-02T13:45:01.333Z,1013.2
2018-06-02T13:46:09.988Z,1013.23
2018-06-02T13:47:18.896Z,1013.21
2018-06-02T13:48:27.556Z,1013.23
2018-06-02T13:49:36.474Z,1013.21
2018-06-02T13:50:45.396Z,1013.23
2018-06-02T13:51:54.592Z,1013.21
2018-06-02T13:53:03.229Z,1013.22
2018-06-02T13:54:11.883Z,1013.18